Terminal Aerodrome Forecast
Issued by NWS Twin Cities, MN

Home | Current Version | Previous Version | Graphics & Text | Print | Product List | Glossary On
Versions: 1 2 3 4 5 6 7 8 9 10 11 12 13 14 15
000
FTUS43 KMPX 210500
TAFSTC
TAF
KSTC 210539Z 2106/2206 15009KT 6SM BR OVC008
     FM210900 15009KT 4SM BR OVC007
     FM211600 15012KT 6SM BR SCT008 OVC014
     FM220400 14013KT 5SM -RA BR OVC008=

USA.gov is the U.S. government's official web portal to all federal, state and local government web resources and services.